sensor_id;sensor_type;location;lat;lon;timestamp;temperature;humidity
35647;DHT22;28680;45.642;13.756;2023-12-20T00:01:00;8.30;99.90
35647;DHT22;28680;45.642;13.756;2023-12-20T00:03:26;8.30;99.90
35647;DHT22;28680;45.642;13.756;2023-12-20T00:05:52;8.30;99.90
35647;DHT22;28680;45.642;13.756;2023-12-20T00:08:18;8.40;99.90
35647;DHT22;28680;45.642;13.756;2023-12-20T00:10:44;8.50;99.90
35647;DHT22;28680;45.642;13.756;2023-12-20T00:13:10;8.40;99.90
35647;DHT22;28680;45.642;13.756;2023-12-20T00:15:36;8.40;99.90
35647;DHT22;28680;45.642;13.756;2023-12-20T00:18:02;8.40;99.90
35647;DHT22;28680;45.642;13.756;2023-12-20T00:20:28;8.40;99.90
35647;DHT22;28680;45.642;13.756;2023-12-20T00:22:56;8.30;99.90
35647;DHT22;28680;45.642;13.756;2023-12-20T00:25:24;8.30;99.90
35647;DHT22;28680;45.642;13.756;2023-12-20T00:27:50;8.30;99.90
35647;DHT22;28680;45.642;13.756;2023-12-20T00:30:16;8.30;99.90
35647;DHT22;28680;45.642;13.756;2023-12-20T00:32:42;8.40;99.90
35647;DHT22;28680;45.642;13.756;2023-12-20T00:35:21;8.30;99.90
35647;DHT22;28680;45.642;13.756;2023-12-20T00:37:47;8.30;99.90
35647;DHT22;28680;45.642;13.756;2023-12-20T00:40:12;8.20;99.90
35647;DHT22;28680;45.642;13.756;2023-12-20T00:42:38;8.00;99.90
35647;DHT22;28680;45.642;13.756;2023-12-20T00:45:05;8.00;99.90
35647;DHT22;28680;45.642;13.756;2023-12-20T00:47:31;7.90;99.90
35647;DHT22;28680;45.642;13.756;2023-12-20T00:49:57;7.90;99.90
35647;DHT22;28680;45.642;13.756;2023-12-20T00:52:23;7.80;99.90
35647;DHT22;28680;45.642;13.756;2023-12-20T00:54:49;7.80;99.90
35647;DHT22;28680;45.642;13.756;2023-12-20T00:57:15;7.80;99.90
35647;DHT22;28680;45.642;13.756;2023-12-20T00:59:41;7.80;99.90
35647;DHT22;28680;45.642;13.756;2023-12-20T01:02:07;7.80;99.90
35647;DHT22;28680;45.642;13.756;2023-12-20T01:04:33;7.70;99.90
35647;DHT22;28680;45.642;13.756;2023-12-20T01:06:58;7.60;99.90
35647;DHT22;28680;45.642;13.756;2023-12-20T01:09:24;7.60;99.90
35647;DHT22;28680;45.642;13.756;2023-12-20T01:11:52;7.60;99.90
35647;DHT22;28680;45.642;13.756;2023-12-20T01:14:18;7.60;99.90
35647;DHT22;28680;45.642;13.756;2023-12-20T01:16:44;7.50;99.90
35647;DHT22;28680;45.642;13.756;2023-12-20T01:19:10;7.60;99.90
35647;DHT22;28680;45.642;13.756;2023-12-20T01:21:36;7.60;99.90
35647;DHT22;28680;45.642;13.756;2023-12-20T01:24:02;7.60;99.90
35647;DHT22;28680;45.642;13.756;2023-12-20T01:26:27;7.50;99.90
35647;DHT22;28680;45.642;13.756;2023-12-20T01:28:53;7.50;99.90
35647;DHT22;28680;45.642;13.756;2023-12-20T01:31:19;7.50;99.90
35647;DHT22;28680;45.642;13.756;2023-12-20T01:33:45;7.50;99.90
35647;DHT22;28680;45.642;13.756;2023-12-20T01:36:11;7.50;99.90
35647;DHT22;28680;45.642;13.756;2023-12-20T01:38:37;7.50;99.90
35647;DHT22;28680;45.642;13.756;2023-12-20T01:41:03;7.50;99.90
35647;DHT22;28680;45.642;13.756;2023-12-20T01:43:30;7.50;99.90
35647;DHT22;28680;45.642;13.756;2023-12-20T01:45:57;7.40;99.90
35647;DHT22;28680;45.642;13.756;2023-12-20T01:48:24;7.40;99.90
35647;DHT22;28680;45.642;13.756;2023-12-20T01:50:50;7.30;99.90
35647;DHT22;28680;45.642;13.756;2023-12-20T01:53:17;7.30;99.90
35647;DHT22;28680;45.642;13.756;2023-12-20T01:55:44;7.30;99.90
35647;DHT22;28680;45.642;13.756;2023-12-20T01:58:11;7.20;99.90
35647;DHT22;28680;45.642;13.756;2023-12-20T02:00:38;7.20;99.90
35647;DHT22;28680;45.642;13.756;2023-12-20T02:03:04;7.20;99.90
35647;DHT22;28680;45.642;13.756;2023-12-20T02:05:31;7.20;99.90
35647;DHT22;28680;45.642;13.756;2023-12-20T02:07:57;7.20;99.90
35647;DHT22;28680;45.642;13.756;2023-12-20T02:10:24;7.30;99.90
35647;DHT22;28680;45.642;13.756;2023-12-20T02:12:50;7.30;99.90
35647;DHT22;28680;45.642;13.756;2023-12-20T02:15:16;7.30;99.90
35647;DHT22;28680;45.642;13.756;2023-12-20T02:17:42;7.30;99.90
35647;DHT22;28680;45.642;13.756;2023-12-20T02:20:08;7.30;99.90
35647;DHT22;28680;45.642;13.756;2023-12-20T02:22:34;7.30;99.90
35647;DHT22;28680;45.642;13.756;2023-12-20T02:25:01;7.30;99.90
35647;DHT22;28680;45.642;13.756;2023-12-20T02:27:27;7.30;99.90
35647;DHT22;28680;45.642;13.756;2023-12-20T02:29:54;7.40;99.90
35647;DHT22;28680;45.642;13.756;2023-12-20T02:32:21;7.30;99.90
35647;DHT22;28680;45.642;13.756;2023-12-20T02:34:48;7.20;99.90
35647;DHT22;28680;45.642;13.756;2023-12-20T02:37:14;7.10;99.90
35647;DHT22;28680;45.642;13.756;2023-12-20T02:39:40;7.10;99.90
35647;DHT22;28680;45.642;13.756;2023-12-20T02:42:06;7.10;99.90
35647;DHT22;28680;45.642;13.756;2023-12-20T02:44:32;7.10;99.90
35647;DHT22;28680;45.642;13.756;2023-12-20T02:46:57;7.10;99.90
35647;DHT22;28680;45.642;13.756;2023-12-20T02:49:23;7.00;99.90
35647;DHT22;28680;45.642;13.756;2023-12-20T02:51:49;7.00;99.90
35647;DHT22;28680;45.642;13.756;2023-12-20T02:54:15;7.10;99.90
35647;DHT22;28680;45.642;13.756;2023-12-20T02:56:40;7.20;99.90
35647;DHT22;28680;45.642;13.756;2023-12-20T02:59:06;7.20;99.90
35647;DHT22;28680;45.642;13.756;2023-12-20T03:01:34;7.20;99.90
35647;DHT22;28680;45.642;13.756;2023-12-20T03:04:00;7.30;99.90
35647;DHT22;28680;45.642;13.756;2023-12-20T03:06:26;7.30;99.90
35647;DHT22;28680;45.642;13.756;2023-12-20T03:08:52;7.20;99.90
35647;DHT22;28680;45.642;13.756;2023-12-20T03:11:18;7.20;99.90
35647;DHT22;28680;45.642;13.756;2023-12-20T03:13:44;7.20;99.90
35647;DHT22;28680;45.642;13.756;2023-12-20T03:16:10;7.10;99.90
35647;DHT22;28680;45.642;13.756;2023-12-20T03:18:36;7.10;99.90
35647;DHT22;28680;45.642;13.756;2023-12-20T03:21:03;7.10;99.90
35647;DHT22;28680;45.642;13.756;2023-12-20T03:23:29;7.10;99.90
35647;DHT22;28680;45.642;13.756;2023-12-20T03:25:56;7.10;99.90
35647;DHT22;28680;45.642;13.756;2023-12-20T03:28:22;7.00;99.90
35647;DHT22;28680;45.642;13.756;2023-12-20T03:30:49;7.00;99.90
35647;DHT22;28680;45.642;13.756;2023-12-20T03:33:14;7.00;99.90
35647;DHT22;28680;45.642;13.756;2023-12-20T03:35:40;7.00;99.90
35647;DHT22;28680;45.642;13.756;2023-12-20T03:38:06;6.90;99.90
35647;DHT22;28680;45.642;13.756;2023-12-20T03:40:32;7.00;99.90
35647;DHT22;28680;45.642;13.756;2023-12-20T03:42:58;7.00;99.90
35647;DHT22;28680;45.642;13.756;2023-12-20T03:45:24;7.00;99.90
35647;DHT22;28680;45.642;13.756;2023-12-20T03:47:50;7.00;99.90
35647;DHT22;28680;45.642;13.756;2023-12-20T03:50:24;7.00;99.90
35647;DHT22;28680;45.642;13.756;2023-12-20T03:52:49;7.00;99.90
35647;DHT22;28680;45.642;13.756;2023-12-20T03:55:15;7.10;99.90
35647;DHT22;28680;45.642;13.756;2023-12-20T03:57:41;7.10;99.90
35647;DHT22;28680;45.642;13.756;2023-12-20T04:00:08;7.10;99.90
35647;DHT22;28680;45.642;13.756;2023-12-20T04:02:41;7.20;99.90
35647;DHT22;28680;45.642;13.756;2023-12-20T04:05:07;7.20;99.90
35647;DHT22;28680;45.642;13.756;2023-12-20T04:07:34;7.30;99.90
35647;DHT22;28680;45.642;13.756;2023-12-20T04:10:00;7.30;99.90
35647;DHT22;28680;45.642;13.756;2023-12-20T04:12:28;7.20;99.90
35647;DHT22;28680;45.642;13.756;2023-12-20T04:14:53;7.20;99.90
35647;DHT22;28680;45.642;13.756;2023-12-20T04:17:20;7.20;99.90
35647;DHT22;28680;45.642;13.756;2023-12-20T04:19:46;7.10;99.90
35647;DHT22;28680;45.642;13.756;2023-12-20T04:22:11;7.20;99.90
35647;DHT22;28680;45.642;13.756;2023-12-20T04:24:37;7.10;99.90
35647;DHT22;28680;45.642;13.756;2023-12-20T04:27:03;7.10;99.90
35647;DHT22;28680;45.642;13.756;2023-12-20T04:29:29;7.00;99.90
35647;DHT22;28680;45.642;13.756;2023-12-20T04:31:55;7.00;99.90
35647;DHT22;28680;45.642;13.756;2023-12-20T04:34:23;7.00;99.90
35647;DHT22;28680;45.642;13.756;2023-12-20T04:36:49;7.00;99.90
35647;DHT22;28680;45.642;13.756;2023-12-20T04:39:14;7.10;99.90
35647;DHT22;28680;45.642;13.756;2023-12-20T04:41:40;7.20;99.90
35647;DHT22;28680;45.642;13.756;2023-12-20T04:44:06;7.40;99.90
35647;DHT22;28680;45.642;13.756;2023-12-20T04:46:32;7.30;99.90
35647;DHT22;28680;45.642;13.756;2023-12-20T04:48:58;7.30;99.90
35647;DHT22;28680;45.642;13.756;2023-12-20T04:51:24;7.30;99.90
35647;DHT22;28680;45.642;13.756;2023-12-20T04:53:49;7.20;99.90
35647;DHT22;28680;45.642;13.756;2023-12-20T04:56:15;7.10;99.90
35647;DHT22;28680;45.642;13.756;2023-12-20T04:58:42;7.10;99.90
35647;DHT22;28680;45.642;13.756;2023-12-20T05:01:09;7.10;99.90
35647;DHT22;28680;45.642;13.756;2023-12-20T05:03:35;7.10;99.90
35647;DHT22;28680;45.642;13.756;2023-12-20T05:06:01;7.20;99.90
35647;DHT22;28680;45.642;13.756;2023-12-20T05:08:27;7.20;99.90
35647;DHT22;28680;45.642;13.756;2023-12-20T05:10:54;7.20;99.90
35647;DHT22;28680;45.642;13.756;2023-12-20T05:13:20;7.10;99.90
35647;DHT22;28680;45.642;13.756;2023-12-20T05:15:46;7.10;99.90
35647;DHT22;28680;45.642;13.756;2023-12-20T05:18:12;7.00;99.90
35647;DHT22;28680;45.642;13.756;2023-12-20T05:20:38;7.00;99.90
35647;DHT22;28680;45.642;13.756;2023-12-20T05:23:07;6.90;99.90
35647;DHT22;28680;45.642;13.756;2023-12-20T05:25:33;7.00;99.90
35647;DHT22;28680;45.642;13.756;2023-12-20T05:27:58;7.10;99.90
35647;DHT22;28680;45.642;13.756;2023-12-20T05:30:24;7.20;99.90
35647;DHT22;28680;45.642;13.756;2023-12-20T05:32:50;7.10;99.90
35647;DHT22;28680;45.642;13.756;2023-12-20T05:35:16;7.20;99.90
35647;DHT22;28680;45.642;13.756;2023-12-20T05:37:42;7.20;99.90
35647;DHT22;28680;45.642;13.756;2023-12-20T05:40:08;7.30;99.90
35647;DHT22;28680;45.642;13.756;2023-12-20T05:42:37;7.50;99.90
35647;DHT22;28680;45.642;13.756;2023-12-20T05:45:05;7.70;99.90
35647;DHT22;28680;45.642;13.756;2023-12-20T05:47:31;7.70;99.90
35647;DHT22;28680;45.642;13.756;2023-12-20T05:49:57;7.70;99.90
35647;DHT22;28680;45.642;13.756;2023-12-20T05:52:23;7.80;99.90
35647;DHT22;28680;45.642;13.756;2023-12-20T05:54:49;7.80;99.90
35647;DHT22;28680;45.642;13.756;2023-12-20T05:57:15;7.70;99.90
35647;DHT22;28680;45.642;13.756;2023-12-20T05:59:40;7.70;99.90
35647;DHT22;28680;45.642;13.756;2023-12-20T06:02:06;7.60;99.90
35647;DHT22;28680;45.642;13.756;2023-12-20T06:04:32;7.40;99.90
35647;DHT22;28680;45.642;13.756;2023-12-20T06:06:58;7.30;99.90
35647;DHT22;28680;45.642;13.756;2023-12-20T06:09:26;7.30;99.90
35647;DHT22;28680;45.642;13.756;2023-12-20T06:11:52;7.30;99.90
35647;DHT22;28680;45.642;13.756;2023-12-20T06:14:18;7.40;99.90
35647;DHT22;28680;45.642;13.756;2023-12-20T06:16:45;7.50;99.90
35647;DHT22;28680;45.642;13.756;2023-12-20T06:19:11;7.50;99.90
35647;DHT22;28680;45.642;13.756;2023-12-20T06:21:37;7.40;99.90
35647;DHT22;28680;45.642;13.756;2023-12-20T06:24:03;7.40;99.90
35647;DHT22;28680;45.642;13.756;2023-12-20T06:26:29;7.30;99.90
35647;DHT22;28680;45.642;13.756;2023-12-20T06:28:54;7.30;99.90
35647;DHT22;28680;45.642;13.756;2023-12-20T06:31:21;7.30;99.90
35647;DHT22;28680;45.642;13.756;2023-12-20T06:33:46;7.30;99.90
35647;DHT22;28680;45.642;13.756;2023-12-20T06:36:13;7.30;99.90
35647;DHT22;28680;45.642;13.756;2023-12-20T06:38:39;7.30;99.90
35647;DHT22;28680;45.642;13.756;2023-12-20T06:41:05;7.30;99.90
35647;DHT22;28680;45.642;13.756;2023-12-20T06:43:31;7.40;99.90
35647;DHT22;28680;45.642;13.756;2023-12-20T06:45:58;7.30;99.90
35647;DHT22;28680;45.642;13.756;2023-12-20T06:48:25;7.40;99.90
35647;DHT22;28680;45.642;13.756;2023-12-20T06:50:51;7.50;99.90
35647;DHT22;28680;45.642;13.756;2023-12-20T06:53:17;7.40;99.90
35647;DHT22;28680;45.642;13.756;2023-12-20T06:55:43;7.40;99.90
35647;DHT22;28680;45.642;13.756;2023-12-20T06:58:09;7.50;99.90
35647;DHT22;28680;45.642;13.756;2023-12-20T07:00:34;7.50;99.90
35647;DHT22;28680;45.642;13.756;2023-12-20T07:03:00;7.50;99.90
35647;DHT22;28680;45.642;13.756;2023-12-20T07:05:26;7.50;99.90
35647;DHT22;28680;45.642;13.756;2023-12-20T07:07:52;7.50;99.90
35647;DHT22;28680;45.642;13.756;2023-12-20T07:10:18;7.50;99.90
35647;DHT22;28680;45.642;13.756;2023-12-20T07:12:44;7.50;99.90
35647;DHT22;28680;45.642;13.756;2023-12-20T07:15:10;7.50;99.90
35647;DHT22;28680;45.642;13.756;2023-12-20T07:17:37;7.60;99.90
35647;DHT22;28680;45.642;13.756;2023-12-20T07:20:03;7.50;99.90
35647;DHT22;28680;45.642;13.756;2023-12-20T07:22:30;7.60;99.90
35647;DHT22;28680;45.642;13.756;2023-12-20T07:24:59;7.60;99.90
35647;DHT22;28680;45.642;13.756;2023-12-20T07:27:26;7.50;99.90
35647;DHT22;28680;45.642;13.756;2023-12-20T07:29:51;7.60;99.90
35647;DHT22;28680;45.642;13.756;2023-12-20T07:32:17;7.80;99.90
35647;DHT22;28680;45.642;13.756;2023-12-20T07:34:43;7.90;99.90
35647;DHT22;28680;45.642;13.756;2023-12-20T07:37:09;8.00;99.90
35647;DHT22;28680;45.642;13.756;2023-12-20T07:39:42;8.10;99.90
35647;DHT22;28680;45.642;13.756;2023-12-20T07:42:08;8.10;99.90
35647;DHT22;28680;45.642;13.756;2023-12-20T07:44:34;8.10;99.90
35647;DHT22;28680;45.642;13.756;2023-12-20T07:47:03;8.20;99.90
35647;DHT22;28680;45.642;13.756;2023-12-20T07:49:30;8.20;99.90
35647;DHT22;28680;45.642;13.756;2023-12-20T07:51:56;8.30;99.90
35647;DHT22;28680;45.642;13.756;2023-12-20T07:54:22;8.90;99.90
35647;DHT22;28680;45.642;13.756;2023-12-20T07:56:49;9.70;99.90
35647;DHT22;28680;45.642;13.756;2023-12-20T07:59:15;10.20;99.90
35647;DHT22;28680;45.642;13.756;2023-12-20T08:01:40;10.60;99.90
35647;DHT22;28680;45.642;13.756;2023-12-20T08:04:07;10.50;99.90
35647;DHT22;28680;45.642;13.756;2023-12-20T08:06:33;11.00;99.90
35647;DHT22;28680;45.642;13.756;2023-12-20T08:08:59;11.60;99.90
35647;DHT22;28680;45.642;13.756;2023-12-20T08:11:25;12.10;99.90
35647;DHT22;28680;45.642;13.756;2023-12-20T08:13:50;12.50;99.90
35647;DHT22;28680;45.642;13.756;2023-12-20T08:16:16;12.80;99.90
35647;DHT22;28680;45.642;13.756;2023-12-20T08:18:43;13.20;99.90
35647;DHT22;28680;45.642;13.756;2023-12-20T08:21:09;13.60;99.90
35647;DHT22;28680;45.642;13.756;2023-12-20T08:23:35;13.70;99.90
35647;DHT22;28680;45.642;13.756;2023-12-20T08:26:19;14.30;99.90
35647;DHT22;28680;45.642;13.756;2023-12-20T08:28:50;15.00;99.90
35647;DHT22;28680;45.642;13.756;2023-12-20T08:31:16;14.50;99.90
35647;DHT22;28680;45.642;13.756;2023-12-20T08:33:47;13.50;99.90
35647;DHT22;28680;45.642;13.756;2023-12-20T08:36:13;12.60;99.90
35647;DHT22;28680;45.642;13.756;2023-12-20T08:38:39;12.10;99.90
35647;DHT22;28680;45.642;13.756;2023-12-20T08:41:06;11.80;99.90
35647;DHT22;28680;45.642;13.756;2023-12-20T08:43:32;11.60;99.90
35647;DHT22;28680;45.642;13.756;2023-12-20T08:45:59;11.40;99.90
35647;DHT22;28680;45.642;13.756;2023-12-20T08:48:25;11.40;99.90
35647;DHT22;28680;45.642;13.756;2023-12-20T08:50:50;11.50;99.90
35647;DHT22;28680;45.642;13.756;2023-12-20T08:53:18;11.50;99.90
35647;DHT22;28680;45.642;13.756;2023-12-20T08:55:44;11.40;99.90
35647;DHT22;28680;45.642;13.756;2023-12-20T08:58:10;11.30;99.90
35647;DHT22;28680;45.642;13.756;2023-12-20T09:00:36;11.10;99.90
35647;DHT22;28680;45.642;13.756;2023-12-20T09:03:02;11.10;99.90
35647;DHT22;28680;45.642;13.756;2023-12-20T09:05:28;11.00;99.90
35647;DHT22;28680;45.642;13.756;2023-12-20T09:07:54;10.90;99.90
35647;DHT22;28680;45.642;13.756;2023-12-20T09:10:20;10.90;99.90
35647;DHT22;28680;45.642;13.756;2023-12-20T09:12:51;10.90;99.90
35647;DHT22;28680;45.642;13.756;2023-12-20T09:15:19;10.80;99.90
35647;DHT22;28680;45.642;13.756;2023-12-20T09:17:45;10.90;99.90
35647;DHT22;28680;45.642;13.756;2023-12-20T09:20:11;10.90;99.90
35647;DHT22;28680;45.642;13.756;2023-12-20T09:22:39;10.90;99.90
35647;DHT22;28680;45.642;13.756;2023-12-20T09:25:05;10.90;99.90
35647;DHT22;28680;45.642;13.756;2023-12-20T09:27:31;10.90;99.90
35647;DHT22;28680;45.642;13.756;2023-12-20T10:12:22;12.90;99.90
35647;DHT22;28680;45.642;13.756;2023-12-20T10:14:48;12.80;99.90
35647;DHT22;28680;45.642;13.756;2023-12-20T10:17:14;12.60;99.90
35647;DHT22;28680;45.642;13.756;2023-12-20T10:19:39;12.50;99.90
35647;DHT22;28680;45.642;13.756;2023-12-20T10:22:05;12.40;99.90
35647;DHT22;28680;45.642;13.756;2023-12-20T10:24:31;12.40;99.90
35647;DHT22;28680;45.642;13.756;2023-12-20T10:27:03;12.40;99.90
35647;DHT22;28680;45.642;13.756;2023-12-20T10:29:36;12.40;99.90
35647;DHT22;28680;45.642;13.756;2023-12-20T10:32:24;12.30;99.90
35647;DHT22;28680;45.642;13.756;2023-12-20T10:34:51;12.30;99.90
35647;DHT22;28680;45.642;13.756;2023-12-20T10:37:17;12.20;99.90
35647;DHT22;28680;45.642;13.756;2023-12-20T10:39:43;12.20;99.90
35647;DHT22;28680;45.642;13.756;2023-12-20T10:42:13;12.10;99.90
35647;DHT22;28680;45.642;13.756;2023-12-20T10:44:40;12.10;99.90
35647;DHT22;28680;45.642;13.756;2023-12-20T10:47:06;12.10;99.90
35647;DHT22;28680;45.642;13.756;2023-12-20T10:49:36;12.00;99.90
35647;DHT22;28680;45.642;13.756;2023-12-20T10:52:04;12.10;99.90
35647;DHT22;28680;45.642;13.756;2023-12-20T10:54:31;12.20;99.90
35647;DHT22;28680;45.642;13.756;2023-12-20T10:56:58;12.30;99.90
35647;DHT22;28680;45.642;13.756;2023-12-20T10:59:24;12.40;99.90
35647;DHT22;28680;45.642;13.756;2023-12-20T11:01:53;12.50;99.90
35647;DHT22;28680;45.642;13.756;2023-12-20T11:04:28;12.60;99.90
35647;DHT22;28680;45.642;13.756;2023-12-20T11:07:06;12.60;99.90
35647;DHT22;28680;45.642;13.756;2023-12-20T11:09:37;12.70;99.90
35647;DHT22;28680;45.642;13.756;2023-12-20T11:14:50;12.90;99.90
35647;DHT22;28680;45.642;13.756;2023-12-20T11:17:16;13.10;99.90
35647;DHT22;28680;45.642;13.756;2023-12-20T11:22:30;13.20;99.90
35647;DHT22;28680;45.642;13.756;2023-12-20T11:25:07;13.20;99.90
35647;DHT22;28680;45.642;13.756;2023-12-20T11:27:40;13.40;99.90
35647;DHT22;28680;45.642;13.756;2023-12-20T11:30:06;13.40;99.90
35647;DHT22;28680;45.642;13.756;2023-12-20T11:32:35;13.40;99.90
35647;DHT22;28680;45.642;13.756;2023-12-20T11:35:18;13.30;99.90
35647;DHT22;28680;45.642;13.756;2023-12-20T11:37:45;13.20;99.90
35647;DHT22;28680;45.642;13.756;2023-12-20T11:40:17;13.10;99.90
35647;DHT22;28680;45.642;13.756;2023-12-20T11:42:50;13.00;99.90
35647;DHT22;28680;45.642;13.756;2023-12-20T11:45:21;13.00;99.90
35647;DHT22;28680;45.642;13.756;2023-12-20T11:47:50;13.00;99.90
35647;DHT22;28680;45.642;13.756;2023-12-20T11:50:17;13.00;99.90
35647;DHT22;28680;45.642;13.756;2023-12-20T11:52:43;13.00;99.90
35647;DHT22;28680;45.642;13.756;2023-12-20T11:55:09;13.00;99.90
35647;DHT22;28680;45.642;13.756;2023-12-20T11:57:36;12.90;99.90
35647;DHT22;28680;45.642;13.756;2023-12-20T12:00:03;13.00;99.90
35647;DHT22;28680;45.642;13.756;2023-12-20T12:02:37;13.00;99.90
35647;DHT22;28680;45.642;13.756;2023-12-20T12:05:03;13.00;99.90
35647;DHT22;28680;45.642;13.756;2023-12-20T12:07:34;13.00;99.90
35647;DHT22;28680;45.642;13.756;2023-12-20T12:10:00;13.00;99.90
35647;DHT22;28680;45.642;13.756;2023-12-20T12:12:26;12.90;99.90
35647;DHT22;28680;45.642;13.756;2023-12-20T12:14:54;12.80;99.90
35647;DHT22;28680;45.642;13.756;2023-12-20T12:17:20;12.80;99.90
35647;DHT22;28680;45.642;13.756;2023-12-20T12:19:45;12.80;99.90
35647;DHT22;28680;45.642;13.756;2023-12-20T12:22:14;12.80;99.90
35647;DHT22;28680;45.642;13.756;2023-12-20T12:24:44;12.90;99.90
35647;DHT22;28680;45.642;13.756;2023-12-20T12:27:14;12.90;99.90
35647;DHT22;28680;45.642;13.756;2023-12-20T12:29:41;12.80;99.90
35647;DHT22;28680;45.642;13.756;2023-12-20T12:32:08;12.80;99.90
35647;DHT22;28680;45.642;13.756;2023-12-20T12:34:35;12.80;99.90
35647;DHT22;28680;45.642;13.756;2023-12-20T12:37:01;12.80;99.90
35647;DHT22;28680;45.642;13.756;2023-12-20T12:39:26;12.90;99.90
35647;DHT22;28680;45.642;13.756;2023-12-20T12:41:53;12.90;99.90
35647;DHT22;28680;45.642;13.756;2023-12-20T12:44:19;12.90;99.90
35647;DHT22;28680;45.642;13.756;2023-12-20T12:46:46;12.90;99.90
35647;DHT22;28680;45.642;13.756;2023-12-20T12:49:12;12.90;99.90
35647;DHT22;28680;45.642;13.756;2023-12-20T12:51:38;12.90;99.90
35647;DHT22;28680;45.642;13.756;2023-12-20T12:54:04;12.90;99.90
35647;DHT22;28680;45.642;13.756;2023-12-20T12:56:30;12.90;99.90
35647;DHT22;28680;45.642;13.756;2023-12-20T12:58:56;12.90;99.90
35647;DHT22;28680;45.642;13.756;2023-12-20T13:01:23;12.90;99.90
35647;DHT22;28680;45.642;13.756;2023-12-20T13:03:49;12.90;99.90
35647;DHT22;28680;45.642;13.756;2023-12-20T13:06:15;12.90;99.90
35647;DHT22;28680;45.642;13.756;2023-12-20T13:08:40;12.90;99.90
35647;DHT22;28680;45.642;13.756;2023-12-20T13:11:07;13.00;99.90
35647;DHT22;28680;45.642;13.756;2023-12-20T13:13:33;13.00;99.90
35647;DHT22;28680;45.642;13.756;2023-12-20T13:15:59;13.00;99.90
35647;DHT22;28680;45.642;13.756;2023-12-20T13:18:26;13.00;99.90
35647;DHT22;28680;45.642;13.756;2023-12-20T13:20:52;13.00;99.90
35647;DHT22;28680;45.642;13.756;2023-12-20T13:23:18;13.00;99.90
35647;DHT22;28680;45.642;13.756;2023-12-20T13:25:49;13.00;99.90
35647;DHT22;28680;45.642;13.756;2023-12-20T13:28:16;13.00;99.90
35647;DHT22;28680;45.642;13.756;2023-12-20T13:30:41;13.00;99.90
35647;DHT22;28680;45.642;13.756;2023-12-20T13:33:07;13.00;99.90
35647;DHT22;28680;45.642;13.756;2023-12-20T13:35:34;13.00;99.90
35647;DHT22;28680;45.642;13.756;2023-12-20T13:38:00;12.90;99.90
35647;DHT22;28680;45.642;13.756;2023-12-20T13:40:26;13.00;99.90
35647;DHT22;28680;45.642;13.756;2023-12-20T13:42:52;13.00;99.90
35647;DHT22;28680;45.642;13.756;2023-12-20T13:45:18;13.00;99.90
35647;DHT22;28680;45.642;13.756;2023-12-20T13:47:44;13.00;99.90
35647;DHT22;28680;45.642;13.756;2023-12-20T13:50:10;13.00;99.90
35647;DHT22;28680;45.642;13.756;2023-12-20T13:52:35;13.00;99.90
35647;DHT22;28680;45.642;13.756;2023-12-20T13:55:02;13.00;99.90
35647;DHT22;28680;45.642;13.756;2023-12-20T13:57:28;13.00;99.90
35647;DHT22;28680;45.642;13.756;2023-12-20T13:59:55;12.90;99.90
35647;DHT22;28680;45.642;13.756;2023-12-20T14:02:23;12.90;99.90
35647;DHT22;28680;45.642;13.756;2023-12-20T14:04:49;12.90;99.90
35647;DHT22;28680;45.642;13.756;2023-12-20T14:07:15;12.90;99.90
35647;DHT22;28680;45.642;13.756;2023-12-20T14:09:41;12.90;99.90
35647;DHT22;28680;45.642;13.756;2023-12-20T14:12:14;12.80;99.90
35647;DHT22;28680;45.642;13.756;2023-12-20T14:14:40;12.80;99.90
35647;DHT22;28680;45.642;13.756;2023-12-20T14:17:09;12.70;99.90
35647;DHT22;28680;45.642;13.756;2023-12-20T14:19:35;12.60;99.90
35647;DHT22;28680;45.642;13.756;2023-12-20T14:22:01;12.60;99.90
35647;DHT22;28680;45.642;13.756;2023-12-20T14:24:28;12.60;99.90
35647;DHT22;28680;45.642;13.756;2023-12-20T14:26:57;12.50;99.90
35647;DHT22;28680;45.642;13.756;2023-12-20T14:29:24;12.50;99.90
35647;DHT22;28680;45.642;13.756;2023-12-20T14:31:50;12.50;99.90
35647;DHT22;28680;45.642;13.756;2023-12-20T14:34:16;12.50;99.90
35647;DHT22;28680;45.642;13.756;2023-12-20T14:36:42;12.50;99.90
35647;DHT22;28680;45.642;13.756;2023-12-20T14:39:08;12.40;99.90
35647;DHT22;28680;45.642;13.756;2023-12-20T14:41:34;12.40;99.90
35647;DHT22;28680;45.642;13.756;2023-12-20T14:44:00;12.40;99.90
35647;DHT22;28680;45.642;13.756;2023-12-20T14:46:26;12.40;99.90
35647;DHT22;28680;45.642;13.756;2023-12-20T14:48:52;12.40;99.90
35647;DHT22;28680;45.642;13.756;2023-12-20T14:51:17;12.30;99.90
35647;DHT22;28680;45.642;13.756;2023-12-20T14:53:43;12.30;99.90
35647;DHT22;28680;45.642;13.756;2023-12-20T14:56:09;12.30;99.90
35647;DHT22;28680;45.642;13.756;2023-12-20T14:58:35;12.50;99.90
35647;DHT22;28680;45.642;13.756;2023-12-20T15:01:02;12.30;99.90
35647;DHT22;28680;45.642;13.756;2023-12-20T15:03:28;12.30;99.90
35647;DHT22;28680;45.642;13.756;2023-12-20T15:05:55;12.30;99.90
35647;DHT22;28680;45.642;13.756;2023-12-20T15:08:24;12.30;99.90
35647;DHT22;28680;45.642;13.756;2023-12-20T15:10:50;12.30;99.90
35647;DHT22;28680;45.642;13.756;2023-12-20T15:13:16;12.20;99.90
35647;DHT22;28680;45.642;13.756;2023-12-20T15:15:42;12.20;99.90
35647;DHT22;28680;45.642;13.756;2023-12-20T15:18:08;12.30;99.90
35647;DHT22;28680;45.642;13.756;2023-12-20T15:20:34;12.20;99.90
35647;DHT22;28680;45.642;13.756;2023-12-20T15:23:02;12.20;99.90
35647;DHT22;28680;45.642;13.756;2023-12-20T15:25:33;12.20;99.90
35647;DHT22;28680;45.642;13.756;2023-12-20T15:27:58;12.20;99.90
35647;DHT22;28680;45.642;13.756;2023-12-20T15:30:24;12.20;99.90
35647;DHT22;28680;45.642;13.756;2023-12-20T15:32:50;12.20;99.90
35647;DHT22;28680;45.642;13.756;2023-12-20T15:38:10;12.10;99.90
35647;DHT22;28680;45.642;13.756;2023-12-20T15:40:36;12.10;99.90
35647;DHT22;28680;45.642;13.756;2023-12-20T15:43:02;12.10;99.90
35647;DHT22;28680;45.642;13.756;2023-12-20T15:45:28;12.00;99.90
35647;DHT22;28680;45.642;13.756;2023-12-20T15:47:53;12.00;99.90
35647;DHT22;28680;45.642;13.756;2023-12-20T15:50:19;12.10;99.90
35647;DHT22;28680;45.642;13.756;2023-12-20T15:52:46;12.10;99.90
35647;DHT22;28680;45.642;13.756;2023-12-20T15:55:12;12.10;99.90
35647;DHT22;28680;45.642;13.756;2023-12-20T15:57:38;12.10;99.90
35647;DHT22;28680;45.642;13.756;2023-12-20T16:00:05;12.10;99.90
35647;DHT22;28680;45.642;13.756;2023-12-20T16:02:34;12.20;99.90
35647;DHT22;28680;45.642;13.756;2023-12-20T16:05:00;12.10;99.90
35647;DHT22;28680;45.642;13.756;2023-12-20T16:07:26;12.10;99.90
35647;DHT22;28680;45.642;13.756;2023-12-20T16:09:52;12.00;99.90